Nicholas Christofi

Jefe de ojeadores - Omonoia
24 Oct 2027
Domingo
Continuar

Personalidad

Adaptabilidad (13) Ambición (5) Controversia (3) Lealtad (20) Presión (1) Profesionalismo (7) Deportividad (3) Temperamento (12)

Perfil

Estilo de dirección Democrático
Licencia Nacional B
Determinación 8
Gestión de personas 6
Motivación 12
Disciplina 11
Satisfacción laboral
96%
Fatiga
0%
Cargo Jefe de ojeadores
Salario 41.5K p/s
Contrato 14.03.2029

Rendimiento

Comportamiento Bueno
Efectividad del entrenamiento
40%
Desarrollo de jugadores
35%
Prevención de lesiones
45%
Implementación táctica
55%

Eventos recientes

Evaluó a un jugador 49d atrás
Asistió a una reunión de captación 49d atrás
Evaluó a un jugador 49d atrás
Evaluó a un jugador 56d atrás
Asistió a una reunión de captación 56d atrás
Evaluó a un jugador 56d atrás

Actualmente siguiendo

87
Jugador Club Estado Habilidad Confianza Observado Última observación Último voto
Matías Canedo Rampla Juniors Activo 88 / 87 40% 2 31.08.2027 -
Nikolay Sotnikov Arsenal Dzerzhinsk Activo 81 / 87 40% 2 31.08.2027 -
Ivan Borges Defensores Activo 77 / 85 40% 1 30.08.2027 -
Drew Baiera New York City Activo 99 / 104 40% 1 24.08.2027 -
Pablo Alcoba Albion Activo 84 / 97 40% 2 23.08.2027 -
Santino Baldassarri Quilmes Activo 85 / 85 40% 1 23.08.2027 -
Hosea Michael Remo Stars Activo 77 / 94 40% 2 22.08.2027 -
Enzo Cardozo Huracán Activo 97 / 122 40% 2 22.08.2027 -
Uzoigwe Odinaka Gazelle Activo 64 / 81 40% 1 21.08.2027 -
Fabián Correa Barranquilla Activo 87 / 96 40% 1 21.08.2027 -
Juan Diego Perdomo Depor Activo 99 / 83 40% 2 20.08.2027 -
Thiago Sánchez Tigre Activo 91 / 100 40% 1 20.08.2027 -
Teo Rodríguez Pagano San Lorenzo Activo 129 / 131 40% 3 17.08.2027 -
Santiago Espíndola River Plate Activo 93 / 123 40% 1 17.08.2027 -
Pyry Mentu HJK Activo 111 / 117 40% 1 14.08.2027 -
Mattia Puzone Siracusa Activo 84 / 116 40% 1 14.08.2027 -
Abdoul Djire Ararat Activo 96 / 107 40% 4 13.08.2027 -
Zahir Ibarra Unión de Santa Fe Activo 95 / 110 40% 1 13.08.2027 -
Lucio Cruceño Godoy Cruz Activo 100 / 101 40% 1 12.08.2027 -
Simone Kosijer Triestina Activo 103 / 114 40% 4 11.08.2027 -
Ulises Giménez River Plate Activo 111 / 108 40% 1 10.08.2027 -
Mauro Carrizo Atlético Tucumán Activo 103 / 110 40% 1 10.08.2027 -
Seth Ridgeon Fulham Activo 118 / 105 40% 1 09.08.2027 -
Alexandr Voronovich Niva Activo 56 / 76 40% 1 08.08.2027 -
Facundo Balatti Penarol Activo 111 / 118 40% 4 07.08.2027 -
Enzo Galli Patronato Activo 88 / 100 40% 1 06.08.2027 -
José Movillo O'Higgins Activo 94 / 85 40% 1 04.08.2027 -
Hlompho Billiat Free State Stars Activo 110 / 95 40% 2 02.08.2027 -
Oussama Benattia ASO Chlef Activo 107 / 80 40% 1 02.08.2027 -
Augusto Bando Ascoli Activo 117 / 119 40% 3 31.07.2027 -
Ibrahim Sabiu Bendel Insurance Activo 77 / 97 40% 1 31.07.2027 -
Vasco Santos Oliveirense Activo 93 / 96 40% 4 29.07.2027 -
Nazareno Roselli Defensa y Justicia Activo 110 / 113 40% 2 28.07.2027 -
Alfie Cresswell Derby County Activo 110 / 114 40% 2 27.07.2027 -
Musa Danjuma Hatayspor Activo 87 / 95 40% 2 26.07.2027 -
Yoram Zague Paris Saint-Germain Activo 120 / 124 40% 2 25.07.2027 -
Kian Best Eibar Activo 123 / 118 40% 3 21.07.2027 -
Elie N'Gatta Sochaux Activo 89 / 98 40% 3 19.07.2027 -
Dimos Papakonstantinou Luki-Energiya Activo 90 / 88 40% 1 15.07.2027 -
Dylan Gorosito Boca Juniors Activo 122 / 121 40% 1 13.07.2027 -
Kaick FC Dallas Activo 95 / 118 40% 2 09.07.2027 -
Pedro Manoel Tammeka Activo 104 / 102 40% 1 09.07.2027 -
Olalekan Adeleke Remo Stars Activo 93 / 106 40% 2 04.07.2027 -
Mikhail Ryadno Baltika Activo 110 / 94 40% 2 03.07.2027 -
Lucas Velásquez Huachipato Activo 99 / 103 40% 2 02.07.2027 -
Jonathan Pérez Guadalajara Activo 124 / 121 40% 2 26.06.2027 -
Yury Petin Chaika Activo 85 / 92 40% 1 24.06.2027 -
Mandla Mothiba Free State Stars Activo 97 / 89 40% 4 21.06.2027 -
Mats Egbring Heerenveen Activo 108 / 118 40% 1 18.06.2027 -
Victor Corona Santos Laguna Activo 110 / 98 40% 2 15.06.2027 -
Nicolae Milinceanu Doxa Activo 105 / 92 48% 1 14.06.2027 -
Vincent Burlet Cracovia Activo 89 / 111 40% 1 12.06.2027 -
Lucas Mbamba Westerlo Activo 70 / 99 40% 1 10.06.2027 -
Alexandr Burkov Spartak Nalchik Activo 75 / 78 40% 1 09.06.2027 -
Leonardo Mendicino Bari Activo 108 / 134 40% 1 08.06.2027 -
Marius Louër Angers SCO Activo 122 / 114 40% 1 07.06.2027 -
Charalabos Erotokritou Doxa Activo 82 / 95 40% 1 01.06.2027 -
Christos Giousis Nea Salamis Activo 110 / 96 40% 2 29.01.2027 -
Roger Martínez Al-Shabab Activo 142 / 120 40% 1 29.01.2027 -
François Kamano Sochi Activo 133 / 131 40% 1 27.01.2027 -
Migran Ageyan Ufa Activo 87 / 108 40% 1 27.01.2027 -
Kamran Aliev SKA Khabarovsk Activo 106 / 99 40% 2 25.01.2027 -
Nicolás Andereggen Ethnikos Achnas Activo 124 / 119 40% 2 18.01.2027 -
Pedro Marques Apollon Activo 100 / 107 40% 2 13.01.2027 -
Dmitry Tsypchenko Torpedo Moscow Activo 95 / 96 40% 1 12.01.2027 -
Alexandr Yushin Torpedo Moscow Activo 112 / 115 40% 1 08.01.2027 -
Razhab Magomedov Dinamo Makhachkala Activo 118 / 95 40% 1 07.01.2027 -
Juan Peñaloza Lokomotiv Moscow Activo 115 / 112 40% 1 07.01.2027 -
Daniil Agureev Amkar Activo 78 / 80 40% 1 06.01.2027 -
Shayne Lavery Cambridge United Activo 124 / 96 40% 1 06.01.2027 -
Rufat Garayev Ravan Activo 113 / 109 40% 1 05.01.2027 -
Martin Georgiev AEK Activo 94 / 101 40% 1 02.01.2027 -
Devante Cole Luton Town Activo 91 / 107 40% 1 30.08.2026 -
Musa Qurbanlı Qarabag Activo 95 / 103 40% 2 29.08.2026 -
Jordan Roberts Everton Activo 129 / 125 40% 2 29.08.2026 -
Justin-Noël Kalumba Mallorca Activo 91 / 116 40% 1 28.08.2026 -
Renaldo Cephas Qarabag Activo 117 / 118 40% 1 27.08.2026 -
Agustín Bianciotti Metropolitanos Activo 99 / 92 40% 1 26.08.2026 -
Diego Valencia Universidad Catolica Activo 119 / 118 40% 1 26.08.2026 -
Albin Andersson Falkenberg Activo 103 / 119 40% 2 24.08.2026 -
Enzo Cabrera AE Kition Activo 106 / 101 40% 1 21.08.2026 -
Adam Taggart Qarabag Activo 118 / 126 40% 1 19.08.2026 -
Ajay Matthews Millwall Activo 101 / 124 40% 1 18.08.2026 -
Nicolás Contín Saburtalo Activo 117 / 105 40% 1 18.08.2026 -
Dani Escriche Apollon Activo 126 / 110 40% 1 11.08.2026 -
Valentin Costache Noah Activo 115 / 117 40% 1 10.08.2026 -
Alejandro Samudio Nacional Activo 97 / 102 40% 1 01.08.2026 -